sensor_id;sensor_type;location;lat;lon;timestamp;temperature;humidity
21648;DHT22;10985;54.182;7.890;2023-05-01T00:02:24;9.60;99.90
21648;DHT22;10985;54.182;7.890;2023-05-01T00:04:50;9.60;99.90
21648;DHT22;10985;54.182;7.890;2023-05-01T00:07:15;9.60;99.90
21648;DHT22;10985;54.182;7.890;2023-05-01T00:09:41;9.60;99.90
21648;DHT22;10985;54.182;7.890;2023-05-01T00:12:07;9.60;99.90
21648;DHT22;10985;54.182;7.890;2023-05-01T00:14:32;9.60;99.90
21648;DHT22;10985;54.182;7.890;2023-05-01T00:16:58;9.60;99.90
21648;DHT22;10985;54.182;7.890;2023-05-01T00:19:23;9.60;99.90
21648;DHT22;10985;54.182;7.890;2023-05-01T00:21:49;9.60;99.90
21648;DHT22;10985;54.182;7.890;2023-05-01T00:24:16;9.60;99.90
21648;DHT22;10985;54.182;7.890;2023-05-01T00:26:42;9.60;99.90
21648;DHT22;10985;54.182;7.890;2023-05-01T00:29:08;9.50;99.90
21648;DHT22;10985;54.182;7.890;2023-05-01T00:31:34;9.50;99.90
21648;DHT22;10985;54.182;7.890;2023-05-01T00:34:00;9.50;99.90
21648;DHT22;10985;54.182;7.890;2023-05-01T00:36:25;9.50;99.90
21648;DHT22;10985;54.182;7.890;2023-05-01T00:38:51;9.50;99.90
21648;DHT22;10985;54.182;7.890;2023-05-01T00:41:16;9.50;99.90
21648;DHT22;10985;54.182;7.890;2023-05-01T00:43:42;9.50;99.90
21648;DHT22;10985;54.182;7.890;2023-05-01T00:46:07;9.40;99.90
21648;DHT22;10985;54.182;7.890;2023-05-01T00:48:34;9.50;99.90
21648;DHT22;10985;54.182;7.890;2023-05-01T00:50:59;9.50;99.90
21648;DHT22;10985;54.182;7.890;2023-05-01T00:53:26;9.40;99.90
21648;DHT22;10985;54.182;7.890;2023-05-01T00:55:53;9.40;99.90
21648;DHT22;10985;54.182;7.890;2023-05-01T00:58:20;9.40;99.90
21648;DHT22;10985;54.182;7.890;2023-05-01T01:00:45;9.40;99.90
21648;DHT22;10985;54.182;7.890;2023-05-01T01:03:11;9.40;99.90
21648;DHT22;10985;54.182;7.890;2023-05-01T01:05:43;9.40;99.90
21648;DHT22;10985;54.182;7.890;2023-05-01T01:08:36;9.40;99.90
21648;DHT22;10985;54.182;7.890;2023-05-01T01:13:55;9.40;99.90
21648;DHT22;10985;54.182;7.890;2023-05-01T01:16:44;9.40;99.90
21648;DHT22;10985;54.182;7.890;2023-05-01T01:19:37;9.40;99.90
21648;DHT22;10985;54.182;7.890;2023-05-01T01:22:11;9.40;99.90
21648;DHT22;10985;54.182;7.890;2023-05-01T01:25:05;9.40;99.90
21648;DHT22;10985;54.182;7.890;2023-05-01T01:35:57;9.30;99.90
21648;DHT22;10985;54.182;7.890;2023-05-01T01:43:40;9.30;99.90
21648;DHT22;10985;54.182;7.890;2023-05-01T01:46:10;9.30;99.90
21648;DHT22;10985;54.182;7.890;2023-05-01T01:48:39;9.30;99.90
21648;DHT22;10985;54.182;7.890;2023-05-01T01:51:10;9.30;99.90
21648;DHT22;10985;54.182;7.890;2023-05-01T01:53:38;9.30;99.90
21648;DHT22;10985;54.182;7.890;2023-05-01T01:56:06;9.30;99.90
21648;DHT22;10985;54.182;7.890;2023-05-01T01:58:34;9.30;99.90
21648;DHT22;10985;54.182;7.890;2023-05-01T02:01:01;9.30;99.90
21648;DHT22;10985;54.182;7.890;2023-05-01T02:03:28;9.30;99.90
21648;DHT22;10985;54.182;7.890;2023-05-01T02:05:55;9.30;99.90
21648;DHT22;10985;54.182;7.890;2023-05-01T02:08:23;9.30;99.90
21648;DHT22;10985;54.182;7.890;2023-05-01T02:10:49;9.30;99.90
21648;DHT22;10985;54.182;7.890;2023-05-01T02:13:16;9.30;99.90
21648;DHT22;10985;54.182;7.890;2023-05-01T02:15:43;9.30;99.90
21648;DHT22;10985;54.182;7.890;2023-05-01T02:18:10;9.30;99.90
21648;DHT22;10985;54.182;7.890;2023-05-01T02:20:36;9.30;99.90
21648;DHT22;10985;54.182;7.890;2023-05-01T02:23:03;9.30;99.90
21648;DHT22;10985;54.182;7.890;2023-05-01T02:25:32;9.30;99.90
21648;DHT22;10985;54.182;7.890;2023-05-01T02:28:01;9.20;99.90
21648;DHT22;10985;54.182;7.890;2023-05-01T02:30:27;9.30;99.90
21648;DHT22;10985;54.182;7.890;2023-05-01T02:32:53;9.20;99.90
21648;DHT22;10985;54.182;7.890;2023-05-01T02:35:19;9.20;99.90
21648;DHT22;10985;54.182;7.890;2023-05-01T02:37:44;9.20;99.90
21648;DHT22;10985;54.182;7.890;2023-05-01T02:40:14;9.20;99.90
21648;DHT22;10985;54.182;7.890;2023-05-01T02:42:41;9.20;99.90
21648;DHT22;10985;54.182;7.890;2023-05-01T02:45:10;9.20;99.90
21648;DHT22;10985;54.182;7.890;2023-05-01T02:47:43;9.20;99.90
21648;DHT22;10985;54.182;7.890;2023-05-01T02:50:10;9.20;99.90
21648;DHT22;10985;54.182;7.890;2023-05-01T02:52:37;9.20;99.90
21648;DHT22;10985;54.182;7.890;2023-05-01T02:55:03;9.20;99.90
21648;DHT22;10985;54.182;7.890;2023-05-01T02:57:32;9.20;99.90
21648;DHT22;10985;54.182;7.890;2023-05-01T02:59:57;9.20;99.90
21648;DHT22;10985;54.182;7.890;2023-05-01T03:02:23;9.20;99.90
21648;DHT22;10985;54.182;7.890;2023-05-01T03:04:48;9.20;99.90
21648;DHT22;10985;54.182;7.890;2023-05-01T03:07:14;9.20;99.90
21648;DHT22;10985;54.182;7.890;2023-05-01T03:09:39;9.20;99.90
21648;DHT22;10985;54.182;7.890;2023-05-01T03:12:05;9.20;99.90
21648;DHT22;10985;54.182;7.890;2023-05-01T03:14:30;9.20;99.90
21648;DHT22;10985;54.182;7.890;2023-05-01T03:16:56;9.20;99.90
21648;DHT22;10985;54.182;7.890;2023-05-01T03:19:22;9.10;99.90
21648;DHT22;10985;54.182;7.890;2023-05-01T03:21:48;9.20;99.90
21648;DHT22;10985;54.182;7.890;2023-05-01T03:24:13;9.20;99.90
21648;DHT22;10985;54.182;7.890;2023-05-01T03:26:39;9.20;99.90
21648;DHT22;10985;54.182;7.890;2023-05-01T03:29:04;9.20;99.90
21648;DHT22;10985;54.182;7.890;2023-05-01T03:31:30;9.20;99.90
21648;DHT22;10985;54.182;7.890;2023-05-01T03:33:55;9.20;99.90
21648;DHT22;10985;54.182;7.890;2023-05-01T03:36:21;9.20;99.90
21648;DHT22;10985;54.182;7.890;2023-05-01T03:38:49;9.20;99.90
21648;DHT22;10985;54.182;7.890;2023-05-01T03:41:15;9.10;99.90
21648;DHT22;10985;54.182;7.890;2023-05-01T03:43:41;9.10;99.90
21648;DHT22;10985;54.182;7.890;2023-05-01T03:46:06;9.10;99.90
21648;DHT22;10985;54.182;7.890;2023-05-01T03:48:32;9.10;99.90
21648;DHT22;10985;54.182;7.890;2023-05-01T03:50:57;9.10;99.90
21648;DHT22;10985;54.182;7.890;2023-05-01T03:53:23;9.10;99.90
21648;DHT22;10985;54.182;7.890;2023-05-01T03:55:49;9.10;99.90
21648;DHT22;10985;54.182;7.890;2023-05-01T03:58:14;9.10;99.90
21648;DHT22;10985;54.182;7.890;2023-05-01T04:00:40;9.10;99.90
21648;DHT22;10985;54.182;7.890;2023-05-01T04:03:06;9.10;99.90
21648;DHT22;10985;54.182;7.890;2023-05-01T04:05:31;9.10;99.90
21648;DHT22;10985;54.182;7.890;2023-05-01T04:07:57;9.10;99.90
21648;DHT22;10985;54.182;7.890;2023-05-01T04:10:23;9.10;99.90
21648;DHT22;10985;54.182;7.890;2023-05-01T04:12:48;9.10;99.90
21648;DHT22;10985;54.182;7.890;2023-05-01T04:15:14;9.10;99.90
21648;DHT22;10985;54.182;7.890;2023-05-01T04:17:40;9.10;99.90
21648;DHT22;10985;54.182;7.890;2023-05-01T04:20:08;9.10;99.90
21648;DHT22;10985;54.182;7.890;2023-05-01T04:22:33;9.10;99.90
21648;DHT22;10985;54.182;7.890;2023-05-01T04:24:59;9.20;99.90
21648;DHT22;10985;54.182;7.890;2023-05-01T04:27:25;9.10;99.90
21648;DHT22;10985;54.182;7.890;2023-05-01T04:29:51;9.20;99.90
21648;DHT22;10985;54.182;7.890;2023-05-01T04:32:16;9.20;99.90
21648;DHT22;10985;54.182;7.890;2023-05-01T04:34:42;9.20;99.90
21648;DHT22;10985;54.182;7.890;2023-05-01T04:37:10;9.20;99.90
21648;DHT22;10985;54.182;7.890;2023-05-01T04:39:35;9.20;99.90
21648;DHT22;10985;54.182;7.890;2023-05-01T04:42:02;9.20;99.90
21648;DHT22;10985;54.182;7.890;2023-05-01T04:44:28;9.30;99.90
21648;DHT22;10985;54.182;7.890;2023-05-01T04:46:53;9.30;99.90
21648;DHT22;10985;54.182;7.890;2023-05-01T04:49:23;9.30;99.90
21648;DHT22;10985;54.182;7.890;2023-05-01T04:51:48;9.30;99.90
21648;DHT22;10985;54.182;7.890;2023-05-01T04:54:15;9.30;99.90
21648;DHT22;10985;54.182;7.890;2023-05-01T04:56:40;9.40;99.90
21648;DHT22;10985;54.182;7.890;2023-05-01T04:59:05;9.40;99.90
21648;DHT22;10985;54.182;7.890;2023-05-01T05:01:31;9.40;99.90
21648;DHT22;10985;54.182;7.890;2023-05-01T05:03:56;9.40;99.90
21648;DHT22;10985;54.182;7.890;2023-05-01T05:06:22;9.40;99.90
21648;DHT22;10985;54.182;7.890;2023-05-01T05:08:53;9.40;99.90
21648;DHT22;10985;54.182;7.890;2023-05-01T05:11:20;9.40;99.90
21648;DHT22;10985;54.182;7.890;2023-05-01T05:13:45;9.40;99.90
21648;DHT22;10985;54.182;7.890;2023-05-01T05:16:11;9.40;99.90
21648;DHT22;10985;54.182;7.890;2023-05-01T05:18:37;9.50;99.90
21648;DHT22;10985;54.182;7.890;2023-05-01T05:21:06;9.50;99.90
21648;DHT22;10985;54.182;7.890;2023-05-01T05:23:32;9.50;99.90
21648;DHT22;10985;54.182;7.890;2023-05-01T05:25:59;9.50;99.90
21648;DHT22;10985;54.182;7.890;2023-05-01T05:28:28;9.60;99.90
21648;DHT22;10985;54.182;7.890;2023-05-01T05:30:55;9.60;99.90
21648;DHT22;10985;54.182;7.890;2023-05-01T05:33:21;9.60;99.90
21648;DHT22;10985;54.182;7.890;2023-05-01T05:35:52;9.60;99.90
21648;DHT22;10985;54.182;7.890;2023-05-01T05:38:17;9.60;99.90
21648;DHT22;10985;54.182;7.890;2023-05-01T05:40:43;9.60;99.90
21648;DHT22;10985;54.182;7.890;2023-05-01T05:43:08;9.70;99.90
21648;DHT22;10985;54.182;7.890;2023-05-01T05:45:35;9.70;99.90
21648;DHT22;10985;54.182;7.890;2023-05-01T05:48:01;9.70;99.90
21648;DHT22;10985;54.182;7.890;2023-05-01T05:50:27;9.70;99.90
21648;DHT22;10985;54.182;7.890;2023-05-01T05:52:53;9.80;99.90
21648;DHT22;10985;54.182;7.890;2023-05-01T05:55:19;9.80;99.90
21648;DHT22;10985;54.182;7.890;2023-05-01T05:57:44;9.80;99.90
21648;DHT22;10985;54.182;7.890;2023-05-01T06:00:10;9.90;99.90
21648;DHT22;10985;54.182;7.890;2023-05-01T06:02:36;9.90;99.90
21648;DHT22;10985;54.182;7.890;2023-05-01T06:05:02;10.00;99.90
21648;DHT22;10985;54.182;7.890;2023-05-01T06:07:27;10.00;99.90
21648;DHT22;10985;54.182;7.890;2023-05-01T06:09:53;10.00;99.90
21648;DHT22;10985;54.182;7.890;2023-05-01T06:12:19;10.10;99.90
21648;DHT22;10985;54.182;7.890;2023-05-01T06:14:45;10.10;99.90
21648;DHT22;10985;54.182;7.890;2023-05-01T06:17:11;10.10;99.90
21648;DHT22;10985;54.182;7.890;2023-05-01T06:19:37;10.20;99.90
21648;DHT22;10985;54.182;7.890;2023-05-01T06:22:02;10.20;99.90
21648;DHT22;10985;54.182;7.890;2023-05-01T06:24:27;10.30;99.90
21648;DHT22;10985;54.182;7.890;2023-05-01T06:26:53;10.30;99.90
21648;DHT22;10985;54.182;7.890;2023-05-01T06:29:18;10.40;99.90
21648;DHT22;10985;54.182;7.890;2023-05-01T06:31:44;10.40;99.90
21648;DHT22;10985;54.182;7.890;2023-05-01T06:34:10;10.50;99.90
21648;DHT22;10985;54.182;7.890;2023-05-01T06:36:35;10.50;99.90
21648;DHT22;10985;54.182;7.890;2023-05-01T06:39:01;10.60;99.90
21648;DHT22;10985;54.182;7.890;2023-05-01T06:41:26;10.70;99.90
21648;DHT22;10985;54.182;7.890;2023-05-01T06:43:52;10.80;99.90
21648;DHT22;10985;54.182;7.890;2023-05-01T06:46:17;10.80;99.90
21648;DHT22;10985;54.182;7.890;2023-05-01T06:48:43;10.90;99.90
21648;DHT22;10985;54.182;7.890;2023-05-01T06:51:08;11.00;99.90
21648;DHT22;10985;54.182;7.890;2023-05-01T06:53:34;11.00;99.90
21648;DHT22;10985;54.182;7.890;2023-05-01T06:56:01;11.10;99.90
21648;DHT22;10985;54.182;7.890;2023-05-01T06:58:26;11.20;99.90
21648;DHT22;10985;54.182;7.890;2023-05-01T07:00:52;11.40;99.90
21648;DHT22;10985;54.182;7.890;2023-05-01T07:03:18;11.40;99.90
21648;DHT22;10985;54.182;7.890;2023-05-01T07:05:43;11.60;99.90
21648;DHT22;10985;54.182;7.890;2023-05-01T07:08:09;11.70;99.90
21648;DHT22;10985;54.182;7.890;2023-05-01T07:10:35;11.80;99.90
21648;DHT22;10985;54.182;7.890;2023-05-01T07:13:00;11.90;99.90
21648;DHT22;10985;54.182;7.890;2023-05-01T07:15:26;12.00;99.90
21648;DHT22;10985;54.182;7.890;2023-05-01T07:17:51;12.10;99.90
21648;DHT22;10985;54.182;7.890;2023-05-01T07:20:17;12.30;99.90
21648;DHT22;10985;54.182;7.890;2023-05-01T07:22:42;12.40;99.90
21648;DHT22;10985;54.182;7.890;2023-05-01T07:25:08;12.50;99.90
21648;DHT22;10985;54.182;7.890;2023-05-01T07:27:33;12.60;99.90
21648;DHT22;10985;54.182;7.890;2023-05-01T07:30:01;12.80;99.90
21648;DHT22;10985;54.182;7.890;2023-05-01T07:32:29;12.90;99.90
21648;DHT22;10985;54.182;7.890;2023-05-01T07:34:55;13.10;99.90
21648;DHT22;10985;54.182;7.890;2023-05-01T07:37:20;13.20;99.90
21648;DHT22;10985;54.182;7.890;2023-05-01T07:39:46;13.30;99.90
21648;DHT22;10985;54.182;7.890;2023-05-01T07:42:11;13.40;99.90
21648;DHT22;10985;54.182;7.890;2023-05-01T07:44:37;13.50;99.90
21648;DHT22;10985;54.182;7.890;2023-05-01T07:47:04;13.60;99.90
21648;DHT22;10985;54.182;7.890;2023-05-01T07:49:35;13.80;99.90
21648;DHT22;10985;54.182;7.890;2023-05-01T07:52:01;13.90;99.90
21648;DHT22;10985;54.182;7.890;2023-05-01T07:54:27;14.10;99.90
21648;DHT22;10985;54.182;7.890;2023-05-01T07:56:52;14.20;99.90
21648;DHT22;10985;54.182;7.890;2023-05-01T07:59:18;14.30;99.90
21648;DHT22;10985;54.182;7.890;2023-05-01T08:01:43;14.40;99.90
21648;DHT22;10985;54.182;7.890;2023-05-01T08:04:09;14.60;99.90
21648;DHT22;10985;54.182;7.890;2023-05-01T08:06:35;14.70;99.90
21648;DHT22;10985;54.182;7.890;2023-05-01T08:09:00;14.80;99.90
21648;DHT22;10985;54.182;7.890;2023-05-01T08:11:26;14.90;99.90
21648;DHT22;10985;54.182;7.890;2023-05-01T08:13:53;15.00;99.90
21648;DHT22;10985;54.182;7.890;2023-05-01T08:16:19;15.20;99.90
21648;DHT22;10985;54.182;7.890;2023-05-01T08:18:44;15.30;99.90
21648;DHT22;10985;54.182;7.890;2023-05-01T08:21:10;15.40;99.90
21648;DHT22;10985;54.182;7.890;2023-05-01T08:23:36;15.60;99.90
21648;DHT22;10985;54.182;7.890;2023-05-01T08:26:02;15.70;99.90
21648;DHT22;10985;54.182;7.890;2023-05-01T08:28:27;15.80;99.90
21648;DHT22;10985;54.182;7.890;2023-05-01T08:30:53;15.90;99.90
21648;DHT22;10985;54.182;7.890;2023-05-01T08:33:18;16.10;99.90
21648;DHT22;10985;54.182;7.890;2023-05-01T08:35:44;16.20;99.90
21648;DHT22;10985;54.182;7.890;2023-05-01T08:38:10;16.40;99.90
21648;DHT22;10985;54.182;7.890;2023-05-01T08:40:36;16.70;99.90
21648;DHT22;10985;54.182;7.890;2023-05-01T08:43:03;17.20;99.90
21648;DHT22;10985;54.182;7.890;2023-05-01T08:45:32;17.80;99.90
21648;DHT22;10985;54.182;7.890;2023-05-01T08:48:07;18.10;99.90
21648;DHT22;10985;54.182;7.890;2023-05-01T08:50:35;18.40;99.90
21648;DHT22;10985;54.182;7.890;2023-05-01T08:53:02;18.70;99.90
21648;DHT22;10985;54.182;7.890;2023-05-01T08:55:29;18.90;99.90
21648;DHT22;10985;54.182;7.890;2023-05-01T08:57:57;19.20;99.90
21648;DHT22;10985;54.182;7.890;2023-05-01T09:00:24;19.30;99.90
21648;DHT22;10985;54.182;7.890;2023-05-01T09:02:49;19.60;99.90
21648;DHT22;10985;54.182;7.890;2023-05-01T09:05:16;19.60;99.90
21648;DHT22;10985;54.182;7.890;2023-05-01T09:07:43;19.50;99.90
21648;DHT22;10985;54.182;7.890;2023-05-01T09:10:15;19.40;99.90
21648;DHT22;10985;54.182;7.890;2023-05-01T09:12:41;19.30;99.90
21648;DHT22;10985;54.182;7.890;2023-05-01T09:15:09;19.20;99.90
21648;DHT22;10985;54.182;7.890;2023-05-01T09:17:35;19.20;99.90
21648;DHT22;10985;54.182;7.890;2023-05-01T09:20:02;19.30;99.90
21648;DHT22;10985;54.182;7.890;2023-05-01T09:22:30;19.30;99.90
21648;DHT22;10985;54.182;7.890;2023-05-01T09:24:56;19.50;99.90
21648;DHT22;10985;54.182;7.890;2023-05-01T09:27:26;19.60;99.90
21648;DHT22;10985;54.182;7.890;2023-05-01T09:29:52;19.80;99.90
21648;DHT22;10985;54.182;7.890;2023-05-01T09:32:20;20.00;99.90
21648;DHT22;10985;54.182;7.890;2023-05-01T09:34:47;20.20;99.90
21648;DHT22;10985;54.182;7.890;2023-05-01T09:37:25;20.30;99.90
21648;DHT22;10985;54.182;7.890;2023-05-01T09:40:09;20.60;99.90
21648;DHT22;10985;54.182;7.890;2023-05-01T09:42:37;20.70;99.90
21648;DHT22;10985;54.182;7.890;2023-05-01T09:45:22;20.90;99.90
21648;DHT22;10985;54.182;7.890;2023-05-01T09:47:48;21.10;99.90
21648;DHT22;10985;54.182;7.890;2023-05-01T09:50:31;21.30;99.90
21648;DHT22;10985;54.182;7.890;2023-05-01T09:52:58;21.50;99.90
21648;DHT22;10985;54.182;7.890;2023-05-01T09:55:25;21.40;99.90
21648;DHT22;10985;54.182;7.890;2023-05-01T09:57:51;21.40;99.90
21648;DHT22;10985;54.182;7.890;2023-05-01T10:00:17;21.40;99.90
21648;DHT22;10985;54.182;7.890;2023-05-01T10:02:46;21.40;99.90
21648;DHT22;10985;54.182;7.890;2023-05-01T10:05:13;21.30;99.90
21648;DHT22;10985;54.182;7.890;2023-05-01T10:07:53;21.30;99.90
21648;DHT22;10985;54.182;7.890;2023-05-01T10:10:20;21.20;99.90
21648;DHT22;10985;54.182;7.890;2023-05-01T10:12:46;21.20;99.90
21648;DHT22;10985;54.182;7.890;2023-05-01T10:15:13;21.10;99.90
21648;DHT22;10985;54.182;7.890;2023-05-01T10:17:40;21.10;99.90
21648;DHT22;10985;54.182;7.890;2023-05-01T10:20:07;20.90;99.90
21648;DHT22;10985;54.182;7.890;2023-05-01T10:22:33;20.80;99.90
21648;DHT22;10985;54.182;7.890;2023-05-01T10:24:59;20.80;99.90
21648;DHT22;10985;54.182;7.890;2023-05-01T10:27:25;20.60;99.90
21648;DHT22;10985;54.182;7.890;2023-05-01T10:29:52;20.50;99.90
21648;DHT22;10985;54.182;7.890;2023-05-01T10:32:18;20.50;99.90
21648;DHT22;10985;54.182;7.890;2023-05-01T10:34:49;20.50;99.90
21648;DHT22;10985;54.182;7.890;2023-05-01T10:37:28;20.50;99.90
21648;DHT22;10985;54.182;7.890;2023-05-01T10:39:55;20.60;99.90
21648;DHT22;10985;54.182;7.890;2023-05-01T10:42:20;20.70;99.90
21648;DHT22;10985;54.182;7.890;2023-05-01T10:44:46;20.80;99.90
21648;DHT22;10985;54.182;7.890;2023-05-01T10:50:12;21.30;99.90
21648;DHT22;10985;54.182;7.890;2023-05-01T10:55:41;22.10;99.90
21648;DHT22;10985;54.182;7.890;2023-05-01T10:58:08;22.40;99.90
21648;DHT22;10985;54.182;7.890;2023-05-01T11:00:33;22.80;99.90
21648;DHT22;10985;54.182;7.890;2023-05-01T11:08:35;23.90;99.90
21648;DHT22;10985;54.182;7.890;2023-05-01T11:13:59;24.60;99.30
21648;DHT22;10985;54.182;7.890;2023-05-01T11:16:40;24.80;98.30
21648;DHT22;10985;54.182;7.890;2023-05-01T11:21:46;25.30;95.20
21648;DHT22;10985;54.182;7.890;2023-05-01T11:24:12;25.50;95.10
21648;DHT22;10985;54.182;7.890;2023-05-01T11:26:39;25.90;95.60
21648;DHT22;10985;54.182;7.890;2023-05-01T11:29:05;26.10;93.30
21648;DHT22;10985;54.182;7.890;2023-05-01T11:31:31;26.20;93.10
21648;DHT22;10985;54.182;7.890;2023-05-01T11:33:58;26.30;92.00
21648;DHT22;10985;54.182;7.890;2023-05-01T11:36:25;26.40;91.00
21648;DHT22;10985;54.182;7.890;2023-05-01T11:38:57;26.50;90.10
21648;DHT22;10985;54.182;7.890;2023-05-01T11:41:25;26.60;86.80
21648;DHT22;10985;54.182;7.890;2023-05-01T11:43:52;26.60;85.20
21648;DHT22;10985;54.182;7.890;2023-05-01T11:46:25;26.60;85.80
21648;DHT22;10985;54.182;7.890;2023-05-01T11:48:55;26.60;82.50
21648;DHT22;10985;54.182;7.890;2023-05-01T11:51:22;26.70;83.00
21648;DHT22;10985;54.182;7.890;2023-05-01T11:54:04;26.90;81.20
21648;DHT22;10985;54.182;7.890;2023-05-01T11:56:31;27.00;80.10
21648;DHT22;10985;54.182;7.890;2023-05-01T11:58:59;27.00;79.30
21648;DHT22;10985;54.182;7.890;2023-05-01T12:01:41;27.00;79.70
21648;DHT22;10985;54.182;7.890;2023-05-01T12:04:08;27.00;78.10
21648;DHT22;10985;54.182;7.890;2023-05-01T12:06:42;27.00;80.00
21648;DHT22;10985;54.182;7.890;2023-05-01T12:09:16;27.00;81.10
21648;DHT22;10985;54.182;7.890;2023-05-01T12:11:43;26.90;79.20
21648;DHT22;10985;54.182;7.890;2023-05-01T12:14:09;26.90;78.00
21648;DHT22;10985;54.182;7.890;2023-05-01T12:16:36;26.90;79.60
21648;DHT22;10985;54.182;7.890;2023-05-01T12:19:02;26.80;78.90
21648;DHT22;10985;54.182;7.890;2023-05-01T12:21:28;26.80;77.90
21648;DHT22;10985;54.182;7.890;2023-05-01T12:23:54;26.80;78.30
21648;DHT22;10985;54.182;7.890;2023-05-01T12:26:21;26.80;79.50
21648;DHT22;10985;54.182;7.890;2023-05-01T12:31:23;26.80;80.20
21648;DHT22;10985;54.182;7.890;2023-05-01T12:33:59;26.80;80.20
21648;DHT22;10985;54.182;7.890;2023-05-01T12:36:27;26.60;80.30
21648;DHT22;10985;54.182;7.890;2023-05-01T12:38:58;26.50;79.30
21648;DHT22;10985;54.182;7.890;2023-05-01T12:41:44;26.50;78.10
21648;DHT22;10985;54.182;7.890;2023-05-01T12:46:42;26.40;77.10
21648;DHT22;10985;54.182;7.890;2023-05-01T12:49:08;26.40;77.30
21648;DHT22;10985;54.182;7.890;2023-05-01T12:51:34;26.30;79.40
21648;DHT22;10985;54.182;7.890;2023-05-01T12:53:59;26.20;78.60
21648;DHT22;10985;54.182;7.890;2023-05-01T12:56:25;26.10;80.10
21648;DHT22;10985;54.182;7.890;2023-05-01T12:58:51;26.00;81.30
21648;DHT22;10985;54.182;7.890;2023-05-01T13:01:27;26.00;80.90
21648;DHT22;10985;54.182;7.890;2023-05-01T13:03:53;25.90;81.20
21648;DHT22;10985;54.182;7.890;2023-05-01T13:06:20;25.90;80.20
21648;DHT22;10985;54.182;7.890;2023-05-01T13:08:47;25.70;81.70
21648;DHT22;10985;54.182;7.890;2023-05-01T13:11:14;25.60;84.60
21648;DHT22;10985;54.182;7.890;2023-05-01T13:13:42;25.50;86.10
21648;DHT22;10985;54.182;7.890;2023-05-01T13:18:46;25.10;83.10
21648;DHT22;10985;54.182;7.890;2023-05-01T13:21:14;24.90;82.70
21648;DHT22;10985;54.182;7.890;2023-05-01T13:23:41;24.70;81.40
21648;DHT22;10985;54.182;7.890;2023-05-01T13:26:08;24.40;85.00
21648;DHT22;10985;54.182;7.890;2023-05-01T13:28:39;24.10;85.10
21648;DHT22;10985;54.182;7.890;2023-05-01T13:31:13;23.70;87.50
21648;DHT22;10985;54.182;7.890;2023-05-01T13:33:40;23.40;89.90
21648;DHT22;10985;54.182;7.890;2023-05-01T13:36:11;23.10;90.90
21648;DHT22;10985;54.182;7.890;2023-05-01T13:38:46;22.80;92.60
21648;DHT22;10985;54.182;7.890;2023-05-01T13:41:16;22.50;93.70
21648;DHT22;10985;54.182;7.890;2023-05-01T13:43:44;22.20;94.60
21648;DHT22;10985;54.182;7.890;2023-05-01T13:46:10;21.90;96.70
21648;DHT22;10985;54.182;7.890;2023-05-01T13:48:38;21.60;97.40
21648;DHT22;10985;54.182;7.890;2023-05-01T13:51:06;21.30;98.70
21648;DHT22;10985;54.182;7.890;2023-05-01T13:53:32;21.00;99.90
21648;DHT22;10985;54.182;7.890;2023-05-01T13:55:57;20.80;99.90
21648;DHT22;10985;54.182;7.890;2023-05-01T13:58:23;20.60;99.90
21648;DHT22;10985;54.182;7.890;2023-05-01T14:00:48;20.40;99.90
21648;DHT22;10985;54.182;7.890;2023-05-01T14:03:14;20.20;99.90
21648;DHT22;10985;54.182;7.890;2023-05-01T14:05:40;20.10;99.90
21648;DHT22;10985;54.182;7.890;2023-05-01T14:08:07;20.00;99.90
21648;DHT22;10985;54.182;7.890;2023-05-01T14:10:33;19.80;99.90
21648;DHT22;10985;54.182;7.890;2023-05-01T14:12:59;19.70;99.90
21648;DHT22;10985;54.182;7.890;2023-05-01T14:15:25;19.50;99.90
21648;DHT22;10985;54.182;7.890;2023-05-01T14:17:51;19.40;99.90
21648;DHT22;10985;54.182;7.890;2023-05-01T14:20:17;19.30;99.90
21648;DHT22;10985;54.182;7.890;2023-05-01T14:22:44;19.20;99.90
21648;DHT22;10985;54.182;7.890;2023-05-01T14:25:30;19.00;99.90
21648;DHT22;10985;54.182;7.890;2023-05-01T14:27:59;18.80;99.90
21648;DHT22;10985;54.182;7.890;2023-05-01T14:30:30;18.60;99.90
21648;DHT22;10985;54.182;7.890;2023-05-01T14:33:05;18.50;99.90
21648;DHT22;10985;54.182;7.890;2023-05-01T14:35:31;18.30;99.90
21648;DHT22;10985;54.182;7.890;2023-05-01T14:38:08;18.10;99.90
21648;DHT22;10985;54.182;7.890;2023-05-01T14:40:34;18.00;99.90
21648;DHT22;10985;54.182;7.890;2023-05-01T14:43:00;17.90;99.90
21648;DHT22;10985;54.182;7.890;2023-05-01T14:45:26;17.90;99.90
21648;DHT22;10985;54.182;7.890;2023-05-01T14:47:51;17.80;99.90
21648;DHT22;10985;54.182;7.890;2023-05-01T14:50:21;17.80;99.90
21648;DHT22;10985;54.182;7.890;2023-05-01T14:52:58;17.70;99.90
21648;DHT22;10985;54.182;7.890;2023-05-01T14:55:28;17.60;99.90
21648;DHT22;10985;54.182;7.890;2023-05-01T14:57:56;17.60;99.90
21648;DHT22;10985;54.182;7.890;2023-05-01T15:00:22;17.60;99.90
21648;DHT22;10985;54.182;7.890;2023-05-01T15:02:48;17.40;99.90
21648;DHT22;10985;54.182;7.890;2023-05-01T15:05:14;17.40;99.90
21648;DHT22;10985;54.182;7.890;2023-05-01T15:07:40;17.20;99.90
21648;DHT22;10985;54.182;7.890;2023-05-01T15:10:06;17.10;99.90
21648;DHT22;10985;54.182;7.890;2023-05-01T15:12:32;17.10;99.90
21648;DHT22;10985;54.182;7.890;2023-05-01T15:14:57;17.00;99.90
21648;DHT22;10985;54.182;7.890;2023-05-01T15:17:23;17.00;99.90
21648;DHT22;10985;54.182;7.890;2023-05-01T15:19:48;17.00;99.90
21648;DHT22;10985;54.182;7.890;2023-05-01T15:22:14;17.00;99.90
21648;DHT22;10985;54.182;7.890;2023-05-01T15:24:40;17.00;99.90
21648;DHT22;10985;54.182;7.890;2023-05-01T15:27:05;17.00;99.90
21648;DHT22;10985;54.182;7.890;2023-05-01T15:29:32;16.90;99.90
21648;DHT22;10985;54.182;7.890;2023-05-01T15:31:57;16.80;99.90
21648;DHT22;10985;54.182;7.890;2023-05-01T15:34:23;16.80;99.90
21648;DHT22;10985;54.182;7.890;2023-05-01T15:36:49;16.80;99.90
21648;DHT22;10985;54.182;7.890;2023-05-01T15:39:15;16.90;99.90
21648;DHT22;10985;54.182;7.890;2023-05-01T15:41:41;16.90;99.90
21648;DHT22;10985;54.182;7.890;2023-05-01T15:44:07;16.90;99.90
21648;DHT22;10985;54.182;7.890;2023-05-01T15:46:35;16.90;99.90
21648;DHT22;10985;54.182;7.890;2023-05-01T15:49:01;16.80;99.90
21648;DHT22;10985;54.182;7.890;2023-05-01T15:51:26;16.80;99.90
21648;DHT22;10985;54.182;7.890;2023-05-01T15:53:52;16.70;99.90
21648;DHT22;10985;54.182;7.890;2023-05-01T15:56:17;16.80;99.90
21648;DHT22;10985;54.182;7.890;2023-05-01T15:58:43;16.70;99.90
21648;DHT22;10985;54.182;7.890;2023-05-01T16:01:10;16.70;99.90
21648;DHT22;10985;54.182;7.890;2023-05-01T16:03:38;16.70;99.90
21648;DHT22;10985;54.182;7.890;2023-05-01T16:06:07;16.60;99.90
21648;DHT22;10985;54.182;7.890;2023-05-01T16:08:33;16.60;99.90
21648;DHT22;10985;54.182;7.890;2023-05-01T16:10:58;16.60;99.90
21648;DHT22;10985;54.182;7.890;2023-05-01T16:13:24;16.50;99.90
21648;DHT22;10985;54.182;7.890;2023-05-01T16:15:50;16.50;99.90
21648;DHT22;10985;54.182;7.890;2023-05-01T16:18:21;16.50;99.90
21648;DHT22;10985;54.182;7.890;2023-05-01T16:20:47;16.50;99.90